Time;durP1;ratioP1;P1;durP2;ratioP2;P2;SDS_P1;SDS_P2;PMS_P1;PMS_P2;Temp;Humidity;BMP_temperature;BMP_pressure;BME280_temperature;BME280_humidity;BME280_pressure;Samples;Min_cycle;Max_cycle;Signal;HPM_P1;HPM_P2
2023/09/11 00:01:54;;;;;;;26.15;16.65;;;;;;;21.71;74.81;101597.63;7389941;19;19939;-72
2023/09/11 00:04:23;;;;;;;28.45;17.25;;;;;;;21.69;74.67;101598.97;7390315;19;19933;-71
2023/09/11 00:07:11;;;;;;;26.02;18.00;;;;;;;21.69;74.37;101591.56;7388853;19;20319;-72
2023/09/11 00:09:40;;;;;;;26.80;18.58;;;;;;;21.69;74.52;101594.31;7389203;19;20501;-71
2023/09/11 00:12:12;;;;;;;25.60;17.30;;;;;;;21.68;75.00;101589.88;7389264;19;19926;-71
2023/09/11 00:15:01;;;;;;;24.55;15.93;;;;;;;21.65;74.84;101584.88;7388102;19;20279;-71
2023/09/11 00:17:30;;;;;;;25.85;17.40;;;;;;;21.64;74.51;101587.84;7390489;19;19926;-71
2023/09/11 00:19:59;;;;;;;27.48;17.38;;;;;;;21.65;74.89;101578.56;7389277;19;19939;-71
2023/09/11 00:22:27;;;;;;;26.70;19.67;;;;;;;21.65;74.83;101576.66;7390318;19;19919;-72
2023/09/11 00:24:56;;;;;;;25.33;17.30;;;;;;;21.62;74.63;101576.25;7390789;19;19930;-71
2023/09/11 00:27:27;;;;;;;27.75;17.98;;;;;;;21.58;74.64;101575.88;7387928;19;19922;-72
2023/09/11 00:29:57;;;;;;;26.38;18.27;;;;;;;21.54;75.13;101573.84;7391932;19;19978;-72
2023/09/11 00:32:26;;;;;;;28.33;18.30;;;;;;;21.50;74.72;101568.00;7392723;19;19922;-71
2023/09/11 00:34:55;;;;;;;28.67;18.35;;;;;;;21.48;74.63;101574.78;7391839;19;19922;-71
2023/09/11 00:37:23;;;;;;;26.63;17.63;;;;;;;21.49;75.05;101565.47;7387994;19;20268;-71
2023/09/11 00:39:52;;;;;;;26.85;18.92;;;;;;;21.49;74.88;101565.47;7384089;19;19919;-71
2023/09/11 00:42:21;;;;;;;28.80;19.52;;;;;;;21.48;74.56;101559.19;7391948;19;19930;-71
2023/09/11 00:44:53;;;;;;;26.08;18.02;;;;;;;21.49;75.02;101566.31;7389261;19;19930;-71
2023/09/11 00:47:23;;;;;;;25.95;18.73;;;;;;;21.47;75.02;101560.25;7389544;19;19926;-71
2023/09/11 00:49:51;;;;;;;29.08;17.58;;;;;;;21.46;74.45;101558.56;7385323;19;19926;-72
2023/09/11 00:52:20;;;;;;;27.77;18.50;;;;;;;21.44;74.86;101555.22;7390046;19;19922;-71
2023/09/11 00:55:11;;;;;;;25.77;17.60;;;;;;;21.41;74.72;101541.97;7388058;19;19922;-71
2023/09/11 00:57:40;;;;;;;22.75;16.85;;;;;;;21.36;74.70;101551.97;7387433;19;19922;-72
2023/09/11 01:00:14;;;;;;;26.17;17.38;;;;;;;21.33;74.77;101539.56;7391508;19;19910;-71
2023/09/11 01:03:03;;;;;;;25.38;18.85;;;;;;;21.29;75.05;101541.09;7383739;19;20007;-72
2023/09/11 01:05:33;;;;;;;28.35;17.83;;;;;;;21.28;75.12;101539.41;7387733;19;19996;-72
2023/09/11 01:08:02;;;;;;;26.33;17.77;;;;;;;21.27;74.75;101537.72;7383603;19;19949;-71
2023/09/11 01:10:51;;;;;;;26.83;18.38;;;;;;;21.26;74.74;101527.84;7387284;19;20344;-72
2023/09/11 01:13:19;;;;;;;26.35;17.65;;;;;;;21.29;75.02;101535.59;7391787;19;20636;-72
2023/09/11 01:15:56;;;;;;;22.70;16.17;;;;;;;21.25;74.53;101537.97;7391004;19;19926;-71
2023/09/11 01:18:30;;;;;;;25.20;18.50;;;;;;;21.23;74.58;101533.78;7391933;19;19954;-71
2023/09/11 01:21:21;;;;;;;25.77;17.10;;;;;;;21.16;75.28;101522.06;7385686;19;20322;-72
2023/09/11 01:24:33;;;;;;;25.48;16.70;;;;;;;21.02;75.56;101524.09;7392324;19;20005;-72
2023/09/11 01:27:29;;;;;;;24.67;17.30;;;;;;;20.97;76.07;101525.88;7390365;19;19947;-70
2023/09/11 01:30:02;;;;;;;24.73;16.60;;;;;;;21.02;75.13;101520.53;7390702;19;19990;-71
2023/09/11 01:32:32;;;;;;;25.65;17.48;;;;;;;21.00;75.37;101519.94;7391887;19;20367;-71
2023/09/11 01:35:01;;;;;;;25.77;17.70;;;;;;;20.96;75.63;101521.47;7384329;19;20551;-71
2023/09/11 01:37:31;;;;;;;24.77;17.42;;;;;;;20.94;75.57;101520.84;7388913;19;19929;-71
2023/09/11 01:40:00;;;;;;;25.63;17.05;;;;;;;20.89;75.69;101510.56;7388952;19;19931;-71
2023/09/11 01:42:34;;;;;;;25.13;17.38;;;;;;;20.86;75.77;101499.25;7389492;19;19923;-71
2023/09/11 01:45:08;;;;;;;23.88;16.35;;;;;;;20.83;75.60;101500.56;7390263;19;19929;-71
2023/09/11 01:47:37;;;;;;;26.33;17.63;;;;;;;20.81;75.71;101509.00;7388694;19;20272;-71
2023/09/11 01:50:09;;;;;;;25.05;17.85;;;;;;;20.80;76.24;101509.22;7390140;19;19918;-71
2023/09/11 01:52:38;;;;;;;;;;;;;;;20.47;77.53;101509.59;7390014;19;20629;-71
2023/09/11 01:55:08;;;;;;;27.13;17.52;;;;;;;20.68;76.48;101503.66;7387227;19;19925;-71
2023/09/11 01:57:37;;;;;;;24.52;16.63;;;;;;;20.71;75.77;101503.19;7389370;19;20360;-71
2023/09/11 02:00:11;;;;;;;25.52;17.17;;;;;;;20.70;76.57;101503.44;7390707;19;19940;-72
2023/09/11 02:03:01;;;;;;;24.90;16.25;;;;;;;20.68;75.83;101497.34;7387312;19;19968;-72
2023/09/11 02:05:50;;;;;;;25.95;16.88;;;;;;;20.66;76.23;101494.03;7385477;19;19941;-71
2023/09/11 02:08:18;;;;;;;26.38;16.42;;;;;;;20.67;76.00;101487.44;7387299;19;19926;-71
2023/09/11 02:10:48;;;;;;;23.52;16.67;;;;;;;20.68;75.83;101494.59;7388001;19;19922;-71
2023/09/11 02:13:17;;;;;;;24.58;16.23;;;;;;;20.67;76.44;101492.94;7387589;19;19926;-71
2023/09/11 02:15:49;;;;;;;23.92;17.10;;;;;;;20.67;75.81;101484.72;7384809;19;19926;-71
2023/09/11 02:18:17;;;;;;;23.83;16.08;;;;;;;20.64;76.25;101482.44;7387812;19;19926;-71
2023/09/11 02:20:47;;;;;;;24.50;15.85;;;;;;;20.61;76.39;101480.16;7388109;19;19922;-71
2023/09/11 02:23:18;;;;;;;24.33;15.93;;;;;;;20.60;76.12;101486.69;7387190;19;19942;-71
2023/09/11 02:26:07;;;;;;;24.58;17.67;;;;;;;20.54;76.07;101482.13;7384561;19;20304;-71
2023/09/11 02:28:36;;;;;;;23.67;16.45;;;;;;;20.52;76.62;101485.13;7384506;19;20042;-71
2023/09/11 02:31:29;;;;;;;23.17;15.00;;;;;;;20.44;76.52;101474.47;7385787;19;19918;-70
2023/09/11 02:33:57;;;;;;;22.73;16.10;;;;;;;20.41;76.64;101479.56;7386182;19;19915;-71
2023/09/11 02:36:26;;;;;;;20.45;14.98;;;;;;;20.41;76.42;101479.56;7385033;19;20252;-71
2023/09/11 02:38:55;;;;;;;26.73;15.52;;;;;;;20.41;76.52;101474.91;7387820;19;20400;-71
2023/09/11 02:41:24;;;;;;;26.30;15.20;;;;;;;20.42;76.62;101484.78;7385499;19;19926;-72
2023/09/11 02:43:52;;;;;;;22.05;15.43;;;;;;;20.40;76.74;101475.16;7384396;19;19946;-71
2023/09/11 02:46:21;;;;;;;22.20;15.52;;;;;;;20.40;76.53;101473.25;7388364;19;19946;-70
2023/09/11 02:48:52;;;;;;;21.83;14.50;;;;;;;20.38;76.56;101475.38;7388261;19;20353;-71
2023/09/11 02:51:41;;;;;;;24.75;16.05;;;;;;;20.32;76.54;101470.81;7386132;19;20256;-71
2023/09/11 02:54:10;;;;;;;23.38;15.18;;;;;;;20.31;77.02;101459.03;7391552;19;19918;-71
2023/09/11 02:56:38;;;;;;;19.02;14.50;;;;;;;20.30;77.07;101461.97;7388678;19;19994;-71
2023/09/11 02:59:07;;;;;;;21.55;14.00;;;;;;;20.30;76.76;101460.09;7392327;19;19915;-70
2023/09/11 03:01:56;;;;;;;19.73;14.82;;;;;;;20.28;76.91;101455.84;7387171;19;19981;-71
2023/09/11 03:04:27;;;;;;;22.20;14.38;;;;;;;20.28;76.46;101458.59;7386729;19;20411;-71
2023/09/11 03:06:57;;;;;;;18.65;15.63;;;;;;;20.26;76.76;101447.88;7389944;19;19956;-71
2023/09/11 03:09:26;;;;;;;18.60;13.68;;;;;;;20.26;77.03;101447.03;7391174;19;19919;-71
2023/09/11 03:11:55;;;;;;;22.38;15.10;;;;;;;20.27;76.51;101448.72;7391704;19;19923;-71
2023/09/11 03:14:23;;;;;;;22.45;14.85;;;;;;;20.25;76.88;101454.41;7393535;19;19918;-71
2023/09/11 03:16:52;;;;;;;23.42;15.32;;;;;;;20.22;76.81;101454.88;7392882;19;19930;-71
2023/09/11 03:19:21;;;;;;;23.30;14.90;;;;;;;20.20;76.98;101447.94;7392874;19;19930;-71
2023/09/11 03:21:53;;;;;;;22.60;13.30;;;;;;;20.17;76.90;101445.66;7394955;19;19922;-71
2023/09/11 03:24:42;;;;;;;20.90;14.80;;;;;;;20.14;76.86;101446.13;7389242;19;20006;-71
2023/09/11 03:27:11;;;;;;;21.88;14.27;;;;;;;20.10;77.50;101439.44;7392440;19;19922;-72
2023/09/11 03:29:39;;;;;;;23.77;13.48;;;;;;;20.07;77.37;101440.72;7394202;19;19933;-72
2023/09/11 03:32:09;;;;;;;22.48;15.05;;;;;;;20.05;77.33;101436.53;7391985;19;20463;-70
2023/09/11 03:34:38;;;;;;;18.98;12.85;;;;;;;20.04;77.29;101432.97;7391178;19;20292;-71
2023/09/11 03:37:09;;;;;;;17.67;12.88;;;;;;;20.04;77.26;101430.22;7390958;19;19914;-72
2023/09/11 03:39:38;;;;;;;21.85;13.85;;;;;;;20.03;77.55;101436.75;7394172;19;19923;-71
2023/09/11 03:42:06;;;;;;;19.75;14.35;;;;;;;20.02;77.48;101437.00;7390424;19;19922;-72
2023/09/11 03:44:35;;;;;;;22.98;12.75;;;;;;;19.99;77.64;101438.25;7389783;19;19931;-71
2023/09/11 03:47:04;;;;;;;20.50;13.40;;;;;;;19.94;77.22;101433.47;7389714;19;19946;-71
2023/09/11 03:49:32;;;;;;;22.25;13.27;;;;;;;19.91;77.45;101425.72;7388727;19;19915;-71
2023/09/11 03:52:01;;;;;;;18.60;13.10;;;;;;;19.87;77.50;101426.41;7393849;19;19926;-71
2023/09/11 03:54:32;;;;;;;20.52;12.93;;;;;;;19.85;77.98;101432.06;7393103;19;20292;-71
2023/09/11 03:57:04;;;;;;;19.42;13.52;;;;;;;19.85;77.76;101421.13;7389650;19;20521;-72
2023/09/11 03:59:33;;;;;;;19.70;12.85;;;;;;;19.85;77.59;101425.75;7392040;19;19923;-71
2023/09/11 04:02:01;;;;;;;22.65;11.50;;;;;;;19.84;77.72;101411.28;7392153;19;19946;-71
2023/09/11 04:04:30;;;;;;;22.08;12.88;;;;;;;19.84;77.60;101407.72;7387230;19;19929;-72
2023/09/11 04:06:59;;;;;;;18.30;12.45;;;;;;;19.82;77.91;101410.66;7391283;19;19923;-71
2023/09/11 04:09:30;;;;;;;18.75;13.85;;;;;;;19.81;77.67;101402.66;7390350;19;20411;-71
2023/09/11 04:12:03;;;;;;;17.95;13.80;;;;;;;19.78;77.85;101409.44;7391652;19;19919;-71
2023/09/11 04:14:37;;;;;;;19.45;13.45;;;;;;;19.77;78.06;101405.03;7389832;19;19950;-71
2023/09/11 04:17:06;;;;;;;18.15;11.85;;;;;;;19.76;78.06;101402.53;7390081;19;20010;-72
2023/09/11 04:19:34;;;;;;;20.63;13.23;;;;;;;19.72;77.96;101410.31;7388754;19;20419;-71
2023/09/11 04:22:04;;;;;;;19.55;12.93;;;;;;;19.70;78.36;101407.00;7389925;19;19922;-71
2023/09/11 04:24:33;;;;;;;19.05;12.52;;;;;;;19.67;78.38;101412.06;7387602;19;19922;-71
2023/09/11 04:27:05;;;;;;;19.85;12.00;;;;;;;19.67;78.29;101417.53;7392152;19;19927;-71
2023/09/11 04:29:33;;;;;;;18.85;12.27;;;;;;;19.63;78.62;101408.94;7389927;19;20292;-71
2023/09/11 04:32:02;;;;;;;15.95;11.45;;;;;;;19.63;78.56;101406.19;7384054;19;19926;-72
2023/09/11 04:34:32;;;;;;;14.07;11.48;;;;;;;19.65;78.67;101395.88;7385066;19;19930;-71
2023/09/11 04:37:00;;;;;;;19.67;12.07;;;;;;;19.66;78.62;101394.00;7391006;19;19918;-72
2023/09/11 04:39:29;;;;;;;15.82;12.43;;;;;;;19.63;78.23;101395.25;7391636;19;20265;-72
2023/09/11 04:41:57;;;;;;;19.35;11.23;;;;;;;19.62;78.84;101398.22;7388354;19;19923;-72
2023/09/11 04:44:29;;;;;;;19.40;12.35;;;;;;;19.62;78.84;101393.59;7392462;19;19943;-71
2023/09/11 04:46:57;;;;;;;21.15;11.90;;;;;;;19.64;78.52;101396.09;7391941;19;19938;-72
2023/09/11 04:49:26;;;;;;;18.20;11.90;;;;;;;19.64;78.63;101393.38;7383369;19;19922;-72
2023/09/11 04:51:55;;;;;;;16.05;11.30;;;;;;;19.62;78.45;101390.88;7386123;19;19922;-71
2023/09/11 04:54:43;;;;;;;16.98;11.25;;;;;;;19.62;78.52;101401.81;7384342;19;19922;-72
2023/09/11 04:57:12;;;;;;;23.13;12.38;;;;;;;19.61;78.65;101391.09;7386370;19;19987;-72
2023/09/11 04:59:44;;;;;;;18.23;11.60;;;;;;;19.61;78.69;101402.88;7391781;19;19923;-72
2023/09/11 05:02:32;;;;;;;18.73;10.93;;;;;;;19.59;78.33;101393.22;7392832;19;19918;-72
2023/09/11 05:05:03;;;;;;;20.17;11.23;;;;;;;19.59;78.85;101404.16;7393670;19;20462;-72
2023/09/11 05:07:31;;;;;;;18.05;11.10;;;;;;;19.58;78.68;101399.75;7395904;19;19932;-72
2023/09/11 05:10:01;;;;;;;18.08;11.25;;;;;;;19.59;78.59;101387.75;7389620;19;20508;-72
2023/09/11 05:12:32;;;;;;;16.90;10.70;;;;;;;19.58;78.91;101388.81;7393898;19;19943;-70
2023/09/11 05:15:04;;;;;;;18.75;12.35;;;;;;;19.56;78.53;101390.91;7380899;19;20581;-72
2023/09/11 05:17:53;;;;;;;20.08;10.73;;;;;;;19.57;78.38;101387.13;7383406;19;19914;-72
2023/09/11 05:20:22;;;;;;;20.35;11.68;;;;;;;19.57;78.86;101389.88;7392448;19;20337;-72
2023/09/11 05:22:51;;;;;;;17.23;11.35;;;;;;;19.59;78.66;101377.63;7389065;19;19918;-72
2023/09/11 05:25:19;;;;;;;20.65;10.57;;;;;;;19.64;78.34;101388.75;7391232;19;20345;-72
2023/09/11 05:27:48;;;;;;;15.93;10.05;;;;;;;19.67;78.85;101382.84;7389317;19;19922;-71
2023/09/11 05:30:19;;;;;;;18.60;10.63;;;;;;;19.69;78.55;101391.66;7391390;19;19947;-72
2023/09/11 05:32:51;;;;;;;16.20;10.10;;;;;;;19.70;78.32;101393.31;7381150;19;19922;-72
2023/09/11 05:35:23;;;;;;;17.25;10.23;;;;;;;19.75;78.51;101381.72;7390929;19;20616;-73
2023/09/11 05:37:52;;;;;;;15.60;10.18;;;;;;;19.74;78.29;101390.97;7386979;19;19922;-72
2023/09/11 05:40:20;;;;;;;19.50;10.98;;;;;;;19.75;78.33;101382.56;7392069;19;19955;-72
2023/09/11 05:42:49;;;;;;;16.45;10.75;;;;;;;19.76;78.46;101384.19;7390403;19;19929;-72
2023/09/11 05:45:20;;;;;;;14.80;10.82;;;;;;;19.77;78.56;101385.03;7390626;19;19918;-72
2023/09/11 05:47:49;;;;;;;18.08;11.52;;;;;;;19.75;78.71;101382.56;7388653;19;19954;-72
2023/09/11 05:50:17;;;;;;;16.60;10.02;;;;;;;19.75;78.40;101384.44;7386748;19;20609;-72
2023/09/11 05:52:46;;;;;;;18.38;10.63;;;;;;;19.76;78.33;101373.28;7393017;19;19923;-72
2023/09/11 05:55:15;;;;;;;18.30;12.05;;;;;;;19.78;78.98;101382.09;7389008;19;19918;-72
2023/09/11 05:57:44;;;;;;;19.80;11.27;;;;;;;19.80;78.58;101379.16;7391276;19;20256;-72
2023/09/11 06:00:35;;;;;;;19.90;9.48;;;;;;;19.82;78.55;101379.75;7389656;19;19927;-72
2023/09/11 06:03:05;;;;;;;14.07;10.38;;;;;;;19.83;78.42;101376.78;7385895;19;19929;-72
2023/09/11 06:05:36;;;;;;;24.33;11.63;;;;;;;19.87;78.42;101374.44;7383628;19;19911;-73
2023/09/11 06:08:06;;;;;;;14.15;11.10;;;;;;;19.91;78.64;101383.88;7390555;19;19922;-73
2023/09/11 06:10:55;;;;;;;17.75;10.35;;;;;;;19.97;78.76;101384.88;7389845;19;19926;-73
2023/09/11 06:13:23;;;;;;;15.02;10.55;;;;;;;20.01;78.87;101375.97;7390669;19;19939;-73
2023/09/11 06:15:52;;;;;;;20.92;10.80;;;;;;;20.09;78.21;101377.56;7395256;19;19929;-73
2023/09/11 06:18:21;;;;;;;23.88;11.48;;;;;;;20.13;78.48;101379.63;7387991;19;19919;-74
2023/09/11 06:20:49;;;;;;;14.55;10.02;;;;;;;20.20;78.36;101382.28;7398360;19;19926;-73
2023/09/11 06:23:18;;;;;;;18.58;10.88;;;;;;;20.23;78.29;101379.09;7395742;19;19992;-73
2023/09/11 06:25:46;;;;;;;17.73;10.23;;;;;;;20.28;78.61;101382.81;7393021;19;22203;-73
2023/09/11 06:28:15;;;;;;;14.55;10.90;;;;;;;20.34;78.45;101371.00;7393406;19;19919;-73
2023/09/11 06:30:45;;;;;;;16.95;11.15;;;;;;;20.41;77.88;101370.91;7395999;19;19922;-73
2023/09/11 06:33:16;;;;;;;20.20;10.05;;;;;;;20.46;78.20;101368.31;7393607;19;19942;-73
2023/09/11 06:35:45;;;;;;;14.40;10.27;;;;;;;20.52;78.02;101375.63;7382126;19;19918;-73
2023/09/11 06:38:14;;;;;;;14.35;10.32;;;;;;;20.58;78.21;101380.16;7390582;19;19922;-74
2023/09/11 06:40:43;;;;;;;14.68;10.32;;;;;;;20.63;78.54;101384.94;7391720;19;19922;-73
2023/09/11 06:43:12;;;;;;;18.67;10.30;;;;;;;20.69;78.15;101376.66;7390248;19;19968;-73
2023/09/11 06:45:41;;;;;;;16.60;10.90;;;;;;;20.73;78.12;101377.84;7386240;19;20550;-74
2023/09/11 06:48:12;;;;;;;16.73;10.68;;;;;;;20.79;78.66;101376.09;7391051;19;19922;-73
2023/09/11 06:50:44;;;;;;;18.52;10.55;;;;;;;20.83;78.30;101369.94;7394106;19;19929;-73
2023/09/11 06:53:13;;;;;;;20.33;10.80;;;;;;;20.90;78.10;101372.56;7388726;19;19926;-73
2023/09/11 06:56:02;;;;;;;20.55;10.45;;;;;;;20.96;78.24;101373.53;7390649;19;19922;-74
2023/09/11 06:58:31;;;;;;;19.67;10.30;;;;;;;21.02;77.97;101367.13;7393654;19;19926;-73
2023/09/11 07:01:01;;;;;;;20.10;11.13;;;;;;;21.06;77.74;101357.34;7394793;19;19926;-73
2023/09/11 07:03:30;;;;;;;20.85;10.52;;;;;;;21.10;77.63;101362.13;7395411;19;19926;-73
2023/09/11 07:06:02;;;;;;;20.17;10.40;;;;;;;21.18;77.57;101359.09;7392449;19;21760;-73
2023/09/11 07:08:31;;;;;;;21.15;11.00;;;;;;;21.24;77.91;101358.16;7394583;19;20236;-73
2023/09/11 07:11:00;;;;;;;23.10;10.88;;;;;;;21.30;77.13;101369.25;7393710;19;19933;-73
2023/09/11 07:13:54;;;;;;;18.73;10.05;;;;;;;21.34;77.14;101359.50;7389609;19;19990;-73
2023/09/11 07:16:24;;;;;;;15.05;9.27;;;;;;;21.40;76.85;101361.28;7391483;19;19922;-72
2023/09/11 07:18:53;;;;;;;20.25;10.90;;;;;;;21.44;76.63;101357.84;7389465;19;19926;-72
2023/09/11 07:21:24;;;;;;;15.45;11.20;;;;;;;21.49;76.85;101357.94;7388644;19;19918;-73
2023/09/11 07:23:54;;;;;;;15.13;9.52;;;;;;;21.54;77.32;101349.84;7391674;19;19922;-74
2023/09/11 07:26:22;;;;;;;19.95;10.25;;;;;;;21.62;76.96;101362.38;7395775;19;19923;-73
2023/09/11 07:28:59;;;;;;;21.20;9.68;;;;;;;21.66;76.87;101353.44;7391542;19;19927;-74
2023/09/11 07:31:28;;;;;;;16.65;9.70;;;;;;;21.76;76.69;101357.47;7392523;19;20277;-74
2023/09/11 07:33:57;;;;;;;20.83;10.82;;;;;;;21.82;76.83;101362.03;7390255;19;19927;-73
2023/09/11 07:36:31;;;;;;;15.80;9.48;;;;;;;21.89;76.93;101351.75;7392817;19;19945;-73
2023/09/11 07:39:00;;;;;;;20.13;10.02;;;;;;;21.94;76.37;101358.22;7393328;19;19927;-74
2023/09/11 07:41:29;;;;;;;21.50;10.40;;;;;;;22.00;76.07;101357.28;7394204;19;19923;-73
2023/09/11 07:43:58;;;;;;;20.30;9.88;;;;;;;22.05;75.88;101368.34;7392281;19;19939;-73
2023/09/11 07:46:28;;;;;;;20.17;10.63;;;;;;;22.12;76.15;101355.34;7392738;19;19947;-73
2023/09/11 07:48:57;;;;;;;18.08;9.48;;;;;;;22.17;75.78;101358.22;7390410;19;19926;-73
2023/09/11 07:51:28;;;;;;;24.20;9.77;;;;;;;22.24;75.81;101357.22;7392310;19;19921;-74
2023/09/11 07:53:58;;;;;;;23.45;10.50;;;;;;;22.32;75.66;101360.41;7390386;19;19918;-74
2023/09/11 07:56:27;;;;;;;20.45;11.27;;;;;;;22.37;75.45;101357.78;7393838;19;20501;-73
2023/09/11 07:58:57;;;;;;;18.92;10.45;;;;;;;22.43;75.53;101354.09;7395505;19;19957;-74
2023/09/11 08:01:26;;;;;;;16.15;9.23;;;;;;;22.49;75.21;101358.59;7389589;19;19926;-74
2023/09/11 08:03:55;;;;;;;21.70;10.13;;;;;;;22.55;75.00;101354.88;7392955;19;20482;-74
2023/09/11 08:06:25;;;;;;;24.60;11.00;;;;;;;22.62;74.74;101351.97;7393048;19;19930;-74
2023/09/11 08:09:03;;;;;;;24.10;9.48;;;;;;;22.69;75.14;101358.19;7395723;19;19959;-74
2023/09/11 08:11:51;;;;;;;17.48;9.27;;;;;;;22.76;74.49;101358.03;7391600;19;19958;-72
2023/09/11 08:14:22;;;;;;;19.90;10.30;;;;;;;22.85;74.24;101356.56;7389066;19;19951;-72
2023/09/11 08:16:51;;;;;;;17.52;10.02;;;;;;;22.92;73.74;101354.50;7394170;19;19979;-72
2023/09/11 08:19:20;;;;;;;22.20;11.20;;;;;;;22.97;73.99;101349.09;7388141;19;19918;-72
2023/09/11 08:21:51;;;;;;;19.67;10.45;;;;;;;23.03;74.03;101357.19;7391012;19;20359;-73
2023/09/11 08:24:23;;;;;;;19.95;10.27;;;;;;;23.10;73.61;101350.69;7390105;19;19946;-73
2023/09/11 08:26:52;;;;;;;19.27;10.45;;;;;;;23.16;74.06;101352.47;7393234;19;20519;-73
2023/09/11 08:29:21;;;;;;;20.52;10.73;;;;;;;23.26;74.15;101353.44;7393247;19;19943;-73
2023/09/11 08:32:09;;;;;;;17.73;10.65;;;;;;;23.36;73.80;101352.81;7391520;19;19923;-73
2023/09/11 08:34:38;;;;;;;24.20;10.43;;;;;;;23.45;73.71;101349.41;7386349;19;19922;-73
2023/09/11 08:37:08;;;;;;;23.42;10.90;;;;;;;23.56;73.18;101341.34;7393564;19;19926;-73
2023/09/11 08:39:39;;;;;;;18.55;9.52;;;;;;;23.67;73.24;101338.50;7388000;19;19926;-73
2023/09/11 08:42:11;;;;;;;19.00;10.13;;;;;;;23.78;73.14;101337.53;7394616;19;20339;-72
2023/09/11 08:44:40;;;;;;;18.92;9.73;;;;;;;23.89;72.77;101336.63;7386760;19;19918;-73
2023/09/11 08:47:09;;;;;;;24.35;10.30;;;;;;;23.99;72.10;101333.16;7391035;19;19918;-73
2023/09/11 08:49:44;;;;;;;18.98;9.32;;;;;;;24.09;72.40;101330.53;7387695;19;19927;-73
2023/09/11 08:52:16;;;;;;;19.20;9.32;;;;;;;24.20;71.52;101334.31;7391006;19;19931;-74
2023/09/11 08:54:52;;;;;;;18.08;9.35;;;;;;;24.26;71.13;101331.34;7388735;19;19978;-74
2023/09/11 08:57:24;;;;;;;23.23;9.95;;;;;;;24.37;71.00;101327.66;7389466;19;19937;-73
2023/09/11 08:59:59;;;;;;;15.35;8.63;;;;;;;24.44;70.38;101324.69;7389060;19;20569;-74
2023/09/11 09:02:29;;;;;;;16.73;8.50;;;;;;;24.55;70.00;101329.19;7391071;19;19978;-74
2023/09/11 09:04:59;;;;;;;15.43;9.23;;;;;;;24.66;70.23;101325.50;7390067;19;19923;-73
2023/09/11 09:07:28;;;;;;;15.48;8.63;;;;;;;24.75;69.24;101334.13;7394840;19;19955;-73
2023/09/11 09:10:02;;;;;;;18.92;7.85;;;;;;;24.87;68.94;101328.47;7394223;19;20633;-74
2023/09/11 09:12:31;;;;;;;15.88;8.35;;;;;;;24.97;68.72;101326.66;7390129;19;19942;-73
2023/09/11 09:15:01;;;;;;;14.60;7.50;;;;;;;25.05;68.02;101326.19;7391704;19;20027;-73
2023/09/11 09:17:30;;;;;;;14.77;7.78;;;;;;;25.14;67.51;101318.25;7389031;19;19922;-73
2023/09/11 09:20:20;;;;;;;;;;;;;;;25.12;66.40;101320.44;7393639;19;19926;-74
2023/09/11 09:23:09;;;;;;;14.98;8.10;;;;;;;25.32;67.39;101312.34;7388289;19;19936;-74
2023/09/11 09:25:41;;;;;;;18.30;7.55;;;;;;;;;;7391280;19;19931;-73
2023/09/11 09:28:10;;;;;;;16.67;7.65;;;;;;;25.55;67.44;101305.63;7389588;19;19930;-73
2023/09/11 09:30:39;;;;;;;13.13;7.65;;;;;;;25.67;67.44;101298.81;7391002;19;19939;-73
2023/09/11 09:33:16;;;;;;;13.73;7.43;;;;;;;25.77;67.87;101297.22;7391464;19;19960;-73
2023/09/11 09:35:46;;;;;;;14.90;7.97;;;;;;;25.90;65.82;101297.56;7391149;19;19922;-74
2023/09/11 09:38:16;;;;;;;12.48;8.00;;;;;;;25.97;65.74;101298.19;7391984;19;19914;-74
2023/09/11 09:40:47;;;;;;;16.75;7.07;;;;;;;26.07;64.83;101291.84;7387058;19;19947;-73
2023/09/11 09:43:19;;;;;;;15.68;7.88;;;;;;;26.17;64.86;101294.66;7392488;19;20336;-73
2023/09/11 09:46:20;;;;;;;14.05;7.43;;;;;;;26.24;63.59;101288.91;7387921;19;19928;-73
2023/09/11 09:48:49;;;;;;;16.92;7.28;;;;;;;26.38;63.37;101293.66;7386187;19;19918;-73
2023/09/11 09:51:18;;;;;;;11.57;7.03;;;;;;;26.50;63.00;101290.66;7391248;19;20430;-74
2023/09/11 09:53:48;;;;;;;15.20;6.60;;;;;;;26.59;61.96;101289.00;7391428;19;19994;-73
2023/09/11 09:56:39;;;;;;;10.80;6.22;;;;;;;26.67;59.97;101291.25;7385089;19;19982;-73
2023/09/11 09:59:29;;;;;;;16.33;6.50;;;;;;;26.77;59.11;101287.66;7389288;19;19918;-73
2023/09/11 10:01:58;;;;;;;14.13;6.40;;;;;;;26.85;58.76;101292.69;7388722;19;19988;-74
2023/09/11 10:04:54;;;;;;;15.55;5.82;;;;;;;26.97;57.05;101285.78;7388342;19;19919;-74
2023/09/11 10:07:39;;;;;;;11.65;6.10;;;;;;;27.05;55.97;101290.75;7392171;19;19915;-74
2023/09/11 10:10:25;;;;;;;9.38;6.22;;;;;;;27.17;55.43;101292.44;7382185;19;19994;-74
2023/09/11 10:13:07;;;;;;;15.52;6.15;;;;;;;27.31;55.91;101288.81;7390232;19;20213;-73
2023/09/11 10:15:37;;;;;;;13.82;6.00;;;;;;;27.39;56.17;101284.69;7390777;19;19922;-73
2023/09/11 10:18:08;;;;;;;14.75;6.63;;;;;;;27.45;55.68;101280.78;7383410;19;19918;-73
2023/09/11 10:20:37;;;;;;;17.58;6.85;;;;;;;27.56;56.19;101281.63;7389793;19;19918;-73
2023/09/11 10:23:08;;;;;;;10.68;5.70;;;;;;;27.65;56.10;101269.72;7388176;19;20709;-73
2023/09/11 10:25:41;;;;;;;15.77;6.47;;;;;;;27.73;54.72;101282.97;7388846;19;19911;-74
2023/09/11 10:28:20;;;;;;;14.13;6.18;;;;;;;27.80;53.16;101280.72;7388131;19;19934;-73
2023/09/11 10:30:56;;;;;;;11.95;5.80;;;;;;;27.85;52.94;101277.94;7388368;19;19975;-72
2023/09/11 10:33:48;;;;;;;15.52;6.10;;;;;;;27.96;54.42;101273.19;7384068;19;20513;-72
2023/09/11 10:36:17;;;;;;;12.32;5.75;;;;;;;28.06;53.94;101269.56;7385135;19;19926;-72
2023/09/11 10:38:49;;;;;;;14.55;6.53;;;;;;;28.14;53.59;101269.00;7390684;19;19915;-72
2023/09/11 10:41:18;;;;;;;15.27;6.63;;;;;;;28.22;52.33;101268.41;7385214;19;19952;-72
2023/09/11 10:43:50;;;;;;;11.85;5.70;;;;;;;28.29;51.82;101260.63;7387510;19;19919;-72
2023/09/11 10:46:33;;;;;;;12.35;5.45;;;;;;;28.39;52.49;101266.91;7385739;19;20285;-72
2023/09/11 10:49:02;;;;;;;11.60;5.40;;;;;;;28.51;52.39;101263.00;7386821;19;19922;-72
2023/09/11 10:51:31;;;;;;;11.57;7.10;;;;;;;28.59;52.57;101256.84;7384571;19;19922;-72
2023/09/11 10:54:01;;;;;;;11.35;5.90;;;;;;;28.67;52.16;101256.22;7387739;19;19952;-72
2023/09/11 10:56:37;;;;;;;12.15;5.70;;;;;;;28.77;52.40;101258.97;7386025;19;19926;-72
2023/09/11 10:59:08;;;;;;;8.73;5.57;;;;;;;28.89;50.52;101264.97;7386332;19;19926;-71
2023/09/11 11:01:38;;;;;;;13.20;6.20;;;;;;;28.98;51.21;101256.84;7383814;19;20301;-71
2023/09/11 11:04:08;;;;;;;9.73;5.25;;;;;;;29.04;50.82;101252.88;7381782;19;20459;-72
2023/09/11 11:06:36;;;;;;;12.50;6.22;;;;;;;29.03;49.72;101259.59;7385561;19;20002;-72
2023/09/11 11:09:25;;;;;;;8.38;5.88;;;;;;;29.05;48.97;101252.63;7389631;19;19918;-72
2023/09/11 11:11:54;;;;;;;11.48;5.72;;;;;;;29.17;49.70;101257.78;7391273;19;19928;-72
2023/09/11 11:14:25;;;;;;;14.02;6.30;;;;;;;29.23;49.00;101263.00;7390765;19;20387;-73
2023/09/11 11:16:59;;;;;;;14.10;6.28;;;;;;;29.25;47.92;101254.38;7389617;19;19926;-73
2023/09/11 11:19:30;;;;;;;13.80;6.78;;;;;;;29.29;47.88;101266.59;7389998;19;19924;-73
2023/09/11 11:21:59;;;;;;;10.88;5.18;;;;;;;29.35;48.65;101259.84;7393904;19;19935;-73
2023/09/11 11:24:28;;;;;;;12.27;6.10;;;;;;;29.50;48.62;101256.94;7393674;19;19930;-73
2023/09/11 11:26:58;;;;;;;11.98;5.97;;;;;;;29.57;47.78;101257.41;7394727;19;19919;-74
2023/09/11 11:29:29;;;;;;;9.43;5.60;;;;;;;29.63;47.18;101253.47;7395369;19;19926;-73
2023/09/11 11:31:59;;;;;;;;;;;;;;;29.62;46.17;101249.03;7399743;19;19922;-73
2023/09/11 11:34:32;;;;;;;11.18;5.80;;;;;;;29.77;46.98;101256.38;7393458;19;19930;-73
2023/09/11 11:37:03;;;;;;;10.45;5.47;;;;;;;29.84;47.29;101250.44;7357162;19;19950;-73